Weather reports worldwide

Advertisment
Glen Ogle, United Kingdom (3148): temperature & dewpoint: 15.01.2020 04:00:00 - 21.01.2020 04:00:00 (GMT)Glen Ogle, United Kingdom (3148): wind speed & gusts: 15.01.2020 04:00:00 - 21.01.2020 04:00:00 (GMT)Glen Ogle, United Kingdom (3148): wind direction: 15.01.2020 04:00:00 - 21.01.2020 04:00:00 (GMT)
Date & Time tt [°C] td [°C] ff [km/h] ff [kn] fx [km/h] fx [kn] dd
21.01.2020 04:00:00 5,6 5,6 35 19 57 31 W
21.01.2020 03:00:00 5,5 5,5 44 24 61 33 W
21.01.2020 02:00:00 5,1 5,1 42 23 67 36 W
21.01.2020 01:00:00 5,4 4,9 54 29 68 37 W
21.01.2020 00:00:00 4,9 4,8 52 28 76 41 W
20.01.2020 23:00:00 4,7 4,6 59 32 80 43 W
20.01.2020 22:00:00 4,9 4,1 57 31 80 43 W
20.01.2020 21:00:00 4,8 3,6 59 32 89 48 W
20.01.2020 20:00:00 4,6 3,5 57 31 80 43 W
20.01.2020 19:00:00 4,7 3,3 52 28 80 43 W
20.01.2020 18:00:00 4,4 3,5 50 27 74 40 W
20.01.2020 17:00:00 4,5 3,5 50 27 78 42 W
20.01.2020 16:00:00 4,4 3,6 50 27 74 40 W
20.01.2020 15:00:00 4,2 3,7 46 25 72 39 W
20.01.2020 14:00:00 4,3 3,2 42 23 68 37 W
20.01.2020 13:00:00 4,6 3,2 35 19 59 32 W
20.01.2020 12:00:00 4,5 2,9 28 15 55 30 W
20.01.2020 11:00:00 4,5 2,6 22 12 46 25 W
20.01.2020 10:00:00 4,1 3,3 21 11 61 33 W
20.01.2020 09:00:00 3,9 3,4 29 16 55 30 W
20.01.2020 08:00:00 3,9 3,5 39 21 61 33 W
20.01.2020 07:00:00 3,9 3,4 37 20 68 37 W
20.01.2020 06:00:00 3,7 3,4 57 31 76 41 W
20.01.2020 05:00:00 3,5 3,3 54 29 78 42 W
20.01.2020 04:00:00 3,8 3,2 57 31 74 40 W
20.01.2020 03:00:00 3,7 3,0 59 32 80 43 W
20.01.2020 02:00:00 3,6 2,9 61 33 83 45 W
20.01.2020 01:00:00 3,5 2,8 39 21 72 39 WSW
20.01.2020 00:00:00 3,7 2,8 46 25 70 38 W
19.01.2020 23:00:00 3,3 2,7 46 25 70 38 W
19.01.2020 22:00:00 3,6 2,5 48 26 74 40 W
19.01.2020 21:00:00 3,4 2,3 48 26 70 38 W
19.01.2020 20:00:00 2,8 1,8 46 25 72 39 W
19.01.2020 19:00:00 2,8 1,4 59 32 83 45 W
19.01.2020 18:00:00 2,8 0,9 46 25 80 43 W
19.01.2020 17:00:00 3,1 0,1 42 23 70 38 W
19.01.2020 16:00:00 3,1 -2,0 28 15 52 28 WSW
19.01.2020 15:00:00 2,1 -0,8 22 12 55 30 W
19.01.2020 14:00:00 3,3 -4,1 41 22 57 31 SW
19.01.2020 13:00:00 3,0 -4,6 31 17 46 25 SW
19.01.2020 12:00:00 2,5 -3,2 28 15 - - SW
19.01.2020 11:00:00 2,1 -1,8 15 8 - - SW
19.01.2020 10:00:00 1,2 0,3 13 7 - - WSW
19.01.2020 09:00:00 1,4 0,8 5 3 - - SW
19.01.2020 08:00:00 1,1 1,0 11 6 - - WSW
19.01.2020 07:00:00 0,8 0,5 16 9 - - W
19.01.2020 06:00:00 0,5 0,5 21 11 - - W
19.01.2020 05:00:00 0,9 0,1 21 11 - - W
19.01.2020 04:00:00 0,4 -0,6 18 10 - - W
19.01.2020 03:00:00 0,5 -0,3 18 10 - - WNW
19.01.2020 02:00:00 0,4 -0,8 9 5 - - W
19.01.2020 01:00:00 0,6 -0,6 22 12 - - W
19.01.2020 00:00:00 0,3 -0,9 18 10 - - WNW
18.01.2020 23:00:00 0,3 -0,9 21 11 - - W
18.01.2020 22:00:00 0,7 -1,5 29 16 - - WNW
18.01.2020 21:00:00 0,9 -1,2 15 8 - - WNW
18.01.2020 20:00:00 1,0 -1,1 26 14 - - W
18.01.2020 19:00:00 0,7 -0,7 21 11 - - W
18.01.2020 18:00:00 0,4 -0,6 21 11 - - W
18.01.2020 17:00:00 0,2 -0,6 21 11 - - W
18.01.2020 16:00:00 0,4 -2,5 18 10 - - WNW
18.01.2020 15:00:00 1,1 -2,8 29 16 48 26 NW
18.01.2020 14:00:00 0,6 -2,4 37 20 54 29 NW
18.01.2020 13:00:00 0,3 -1,9 34 18 - - WNW
18.01.2020 12:00:00 -0,3 -2,2 29 16 - - WNW
18.01.2020 11:00:00 -0,3 -2,4 29 16 - - WNW
18.01.2020 10:00:00 -0,9 -1,4 34 18 55 30 W
18.01.2020 09:00:00 -0,8 -1,0 41 22 55 30 WNW
18.01.2020 08:00:00 -0,9 -0,9 42 23 61 33 WNW
18.01.2020 07:00:00 -0,8 -0,8 29 16 50 27 W
18.01.2020 06:00:00 -1,0 -1,0 31 17 50 27 W
18.01.2020 05:00:00 -1,1 -1,1 29 16 50 27 W
18.01.2020 04:00:00 -0,8 -1,6 39 21 54 29 WNW
18.01.2020 03:00:00 -0,4 -2,2 31 17 57 31 W
18.01.2020 02:00:00 -0,6 -1,8 37 20 50 27 WNW
18.01.2020 01:00:00 -0,2 -2,1 31 17 54 29 WNW
18.01.2020 00:00:00 -0,1 -1,2 35 19 59 32 W
17.01.2020 23:00:00 -0,8 -0,8 31 17 - - W
17.01.2020 22:00:00 -0,7 -1,1 34 18 55 30 W
17.01.2020 21:00:00 0,1 -1,2 42 23 59 32 W
17.01.2020 20:00:00 0,5 -0,8 44 24 55 30 W
17.01.2020 19:00:00 0,3 0,1 41 22 59 32 W
17.01.2020 18:00:00 1,0 0,4 42 23 61 33 WNW
17.01.2020 17:00:00 1,1 0,6 34 18 59 32 WNW
17.01.2020 16:00:00 1,4 0,6 34 18 46 25 W
17.01.2020 15:00:00 1,4 0,4 31 17 - - W
17.01.2020 14:00:00 1,4 0,7 24 13 - - W
17.01.2020 13:00:00 1,4 0,4 22 12 48 26 WSW
17.01.2020 12:00:00 1,6 -0,2 31 17 48 26 SW
17.01.2020 11:00:00 1,1 -0,2 37 20 52 28 SW
17.01.2020 10:00:00 1,4 -1,2 26 14 46 25 SW
17.01.2020 09:00:00 1,1 -1,3 18 10 50 27 SSW
17.01.2020 08:00:00 1,4 -1,0 31 17 50 27 SW
17.01.2020 07:00:00 1,4 -0,3 31 17 50 27 SSW
17.01.2020 06:00:00 1,7 -0,3 31 17 54 29 SSW
17.01.2020 05:00:00 1,7 0,0 34 18 54 29 SSW
17.01.2020 04:00:00 1,7 0,2 31 17 - - SSW
17.01.2020 03:00:00 2,1 -0,1 31 17 57 31 SW
17.01.2020 02:00:00 1,9 0,8 34 18 57 31 SSW
17.01.2020 01:00:00 1,9 1,3 34 18 57 31 SSW
17.01.2020 00:00:00 2,3 1,9 29 16 63 34 SSW
16.01.2020 23:00:00 2,6 1,9 39 21 68 37 S
16.01.2020 22:00:00 3,4 1,4 41 22 74 40 SSW
16.01.2020 21:00:00 3,8 1,3 44 24 78 42 SSW
16.01.2020 20:00:00 4,7 2,2 35 19 80 43 SW
16.01.2020 19:00:00 6,0 6,0 52 28 91 49 S
16.01.2020 18:00:00 5,1 5,1 63 34 78 42 S
16.01.2020 17:00:00 3,8 3,8 46 25 74 40 SSE
16.01.2020 16:00:00 2,6 2,6 46 25 72 39 SE
16.01.2020 15:00:00 2,7 2,6 50 27 74 40 SE
16.01.2020 14:00:00 3,6 2,6 48 26 67 36 SSE
16.01.2020 13:00:00 3,7 2,7 41 22 81 44 SSE
16.01.2020 12:00:00 4,0 3,3 68 37 98 53 S
16.01.2020 11:00:00 3,8 3,8 74 40 98 53 S
16.01.2020 10:00:00 4,2 4,2 67 36 94 51 S
16.01.2020 09:00:00 3,8 3,8 57 31 98 53 S
16.01.2020 08:00:00 3,5 3,4 68 37 102 55 S
16.01.2020 07:00:00 3,1 3,0 63 34 83 45 S
16.01.2020 06:00:00 2,6 2,3 48 26 74 40 S
16.01.2020 05:00:00 2,2 1,9 50 27 70 38 S
16.01.2020 04:00:00 2,1 1,4 46 25 65 35 SSW
16.01.2020 03:00:00 1,7 0,5 39 21 70 38 S
16.01.2020 02:00:00 1,8 -0,2 41 22 67 36 SSW
16.01.2020 01:00:00 2,0 -0,6 26 14 52 28 SSW
16.01.2020 00:00:00 2,3 -0,7 24 13 57 31 SSW
15.01.2020 23:00:00 2,4 -0,4 39 21 65 35 WSW
15.01.2020 22:00:00 2,6 -0,3 46 25 78 42 SW
15.01.2020 21:00:00 3,1 -0,9 44 24 91 49 SW
15.01.2020 20:00:00 3,2 -0,6 61 33 93 50 SW
15.01.2020 19:00:00 1,8 0,8 57 31 104 56 WSW
15.01.2020 18:00:00 3,1 0,9 55 30 102 55 SW
15.01.2020 17:00:00 2,6 1,0 54 29 100 54 SW
15.01.2020 16:00:00 2,3 0,9 54 29 104 56 SW
15.01.2020 15:00:00 2,2 1,0 57 31 106 57 SW
15.01.2020 14:00:00 2,2 0,9 55 30 113 61 SSW
15.01.2020 13:00:00 2,0 0,8 57 31 111 60 SW
15.01.2020 12:00:00 2,6 0,0 65 35 115 62 SSW
15.01.2020 11:00:00 1,9 0,2 54 29 100 54 SSW
15.01.2020 10:00:00 1,3 -0,1 68 37 102 55 SSW
15.01.2020 09:00:00 1,5 -0,9 52 28 81 44 SSW
15.01.2020 08:00:00 0,9 -0,8 44 24 76 41 SSW
15.01.2020 07:00:00 1,4 -1,6 54 29 94 51 SSW
15.01.2020 06:00:00 1,2 -1,4 50 27 89 48 SSW
15.01.2020 05:00:00 1,0 -1,5 50 27 89 48 SSW
15.01.2020 04:00:00 0,7 -1,6 57 31 98 53 SSW

tt = temperature
td = dewpoint
ff = wind speed
fx = gusts
dd = wind direction

Next stations